Time;durP1;ratioP1;P1;durP2;ratioP2;P2;SDS_P1;SDS_P2;PMS_P1;PMS_P2;Temp;Humidity;BMP_temperature;BMP_pressure;BME280_temperature;BME280_humidity;BME280_pressure;Samples;Min_cycle;Max_cycle;Signal;HPM_P1;HPM_P2
2023/05/01 00:02:14;;;;;;;15.85;5.47;;;;;;;6.95;100.00;101905.03;10375309;28;20053;-75
2023/05/01 00:07:15;;;;;;;10.50;5.18;;;;;;;6.90;100.00;101899.31;10396443;28;20042;-74
2023/05/01 00:12:18;;;;;;;12.45;5.47;;;;;;;6.91;100.00;101895.56;10415683;28;20113;-75
2023/05/01 00:17:19;;;;;;;8.95;4.78;;;;;;;6.79;100.00;101886.25;10383901;28;20038;-75
2023/05/01 00:22:19;;;;;;;10.13;5.13;;;;;;;6.81;100.00;101884.16;10366700;28;20551;-76
2023/05/01 00:27:20;;;;;;;12.57;5.13;;;;;;;6.65;100.00;101863.44;10415408;28;20101;-76
2023/05/01 00:32:20;;;;;;;14.35;5.40;;;;;;;6.76;100.00;101875.69;10415891;28;20029;-75
2023/05/01 00:37:21;;;;;;;15.60;5.32;;;;;;;6.55;100.00;101857.50;10380543;28;20042;-75
2023/05/01 00:42:21;;;;;;;14.82;5.50;;;;;;;6.55;100.00;101852.91;10382361;28;20044;-74
2023/05/01 00:47:22;;;;;;;14.32;5.38;;;;;;;6.43;100.00;101838.94;10399136;28;20056;-73
2023/05/01 00:52:23;;;;;;;14.10;6.20;;;;;;;6.37;100.00;101845.22;10382563;28;20121;-75
2023/05/01 00:57:23;;;;;;;9.88;5.95;;;;;;;6.24;100.00;101843.28;10398017;28;20049;-74
2023/05/01 01:02:25;;;;;;;12.18;6.03;;;;;;;6.17;100.00;101847.84;10381612;28;20037;-74
2023/05/01 01:07:35;;;;;;;11.18;5.88;;;;;;;6.11;100.00;101847.81;10413682;28;20076;-75
2023/05/01 01:12:44;;;;;;;13.15;6.05;;;;;;;6.06;100.00;101840.22;10397386;28;20057;-74
2023/05/01 01:17:52;;;;;;;11.57;5.63;;;;;;;5.95;100.00;101818.88;10413489;28;20045;-75
2023/05/01 01:23:00;;;;;;;10.73;5.60;;;;;;;5.89;100.00;101809.59;10381161;28;20037;-75
2023/05/01 01:28:10;;;;;;;9.82;6.22;;;;;;;5.89;100.00;101816.91;10397544;28;20053;-75
2023/05/01 01:33:32;;;;;;;14.93;7.63;;;;;;;5.84;100.00;101814.78;10414229;28;20037;-75
2023/05/01 01:38:44;;;;;;;14.93;6.28;;;;;;;5.56;100.00;101774.69;10415622;28;20129;-75
2023/05/01 01:43:46;;;;;;;12.55;6.07;;;;;;;5.59;100.00;101792.56;10379326;28;20034;-74
2023/05/01 01:48:48;;;;;;;13.48;6.20;;;;;;;5.53;100.00;101788.72;10379555;28;20132;-75
2023/05/01 01:53:52;;;;;;;10.55;5.95;;;;;;;5.41;100.00;101774.75;10379522;28;20045;-75
2023/05/01 01:58:53;;;;;;;15.43;6.38;;;;;;;5.40;100.00;101767.63;10395828;28;20068;-75
2023/05/01 02:03:53;;;;;;;14.32;6.30;;;;;;;5.37;100.00;101769.91;10377131;28;20048;-74
2023/05/01 02:08:54;;;;;;;11.50;6.85;;;;;;;5.35;100.00;101764.63;10379592;28;20045;-74
2023/05/01 02:13:54;;;;;;;10.77;5.72;;;;;;;5.22;100.00;101757.19;10377816;28;20085;-74
2023/05/01 02:18:55;;;;;;;12.48;7.03;;;;;;;5.22;100.00;101748.97;10352927;28;20037;-74
2023/05/01 02:23:56;;;;;;;9.65;6.20;;;;;;;5.11;100.00;101729.59;10378169;28;20049;-74
2023/05/01 02:28:57;;;;;;;13.13;6.35;;;;;;;5.11;100.00;101735.06;10377088;28;20049;-74
2023/05/01 02:34:03;;;;;;;14.27;7.35;;;;;;;5.10;100.00;101727.88;10391278;28;20084;-73
2023/05/01 02:39:03;;;;;;;12.90;7.00;;;;;;;4.71;100.00;101647.38;10394385;28;20041;-74
2023/05/01 02:44:04;;;;;;;12.35;7.18;;;;;;;5.03;100.00;101712.28;10378149;28;20046;-74
2023/05/01 02:49:05;;;;;;;15.23;7.28;;;;;;;4.99;100.00;101711.00;10375771;28;20068;-74
2023/05/01 02:54:05;;;;;;;15.05;7.97;;;;;;;4.83;100.00;101678.53;10377531;28;20033;-73
2023/05/01 02:59:06;;;;;;;14.77;7.18;;;;;;;4.78;100.00;101670.13;10394105;28;20046;-75
2023/05/01 03:04:07;;;;;;;10.68;6.57;;;;;;;4.86;100.00;101683.63;10412238;28;20114;-75
2023/05/01 03:09:07;;;;;;;15.90;7.53;;;;;;;4.77;100.00;101673.88;10393548;28;20061;-75
2023/05/01 03:14:07;;;;;;;14.68;7.53;;;;;;;4.64;100.00;101656.34;10407699;28;20506;-74
2023/05/01 03:19:09;;;;;;;18.27;8.05;;;;;;;4.61;100.00;101653.16;10375910;28;20030;-74
2023/05/01 03:24:09;;;;;;;12.55;6.65;;;;;;;4.58;100.00;101662.56;10409405;28;20049;-74
2023/05/01 03:29:12;;;;;;;20.13;7.32;;;;;;;4.52;100.00;101644.25;10410568;28;20053;-74
2023/05/01 03:34:12;;;;;;;15.60;7.97;;;;;;;4.32;100.00;101621.41;10393405;28;20041;-74
2023/05/01 03:39:13;;;;;;;16.42;8.48;;;;;;;4.19;100.00;101617.50;10412101;28;20040;-75
2023/05/01 03:44:13;;;;;;;15.02;7.63;;;;;;;4.29;100.00;101635.44;10416180;28;20033;-74
2023/05/01 03:49:14;;;;;;;22.30;7.60;;;;;;;4.28;100.00;101629.16;10383314;28;20041;-75
2023/05/01 03:54:14;;;;;;;14.32;7.00;;;;;;;4.28;100.00;101641.91;10401105;28;20045;-75
2023/05/01 03:59:15;;;;;;;13.55;7.18;;;;;;;4.24;100.00;101636.03;10418284;28;20033;-75
2023/05/01 04:04:15;;;;;;;16.80;8.32;;;;;;;4.22;100.00;101629.94;10400680;28;20057;-74
2023/05/01 04:09:16;;;;;;;23.65;7.75;;;;;;;4.16;100.00;101617.91;10383303;28;20041;-74
2023/05/01 04:14:16;;;;;;;15.32;8.80;;;;;;;4.17;100.00;101627.75;10415388;28;20064;-74
2023/05/01 04:19:17;;;;;;;21.08;8.60;;;;;;;4.17;100.00;101614.13;10399559;28;20072;-73
2023/05/01 04:24:17;;;;;;;18.45;8.38;;;;;;;4.24;100.00;101606.88;10398943;28;20033;-74
2023/05/01 04:29:18;;;;;;;17.73;8.10;;;;;;;4.24;100.00;101601.44;10399034;28;20113;-73
2023/05/01 04:34:18;;;;;;;15.65;7.75;;;;;;;4.42;100.00;101606.44;10365339;28;20508;-73
2023/05/01 04:39:19;;;;;;;16.63;8.02;;;;;;;4.57;100.00;101603.63;10415557;28;20049;-74
2023/05/01 04:44:19;;;;;;;16.35;8.27;;;;;;;4.70;100.00;101596.59;10399055;28;20048;-74
2023/05/01 04:49:23;;;;;;;16.42;7.93;;;;;;;4.87;100.00;101614.34;10382331;28;20029;-74
2023/05/01 04:54:23;;;;;;;18.40;8.43;;;;;;;5.03;100.00;101610.47;10398190;28;20120;-74
2023/05/01 04:59:24;;;;;;;14.63;7.57;;;;;;;5.24;100.00;101602.22;10413218;28;20033;-74
2023/05/01 05:04:24;;;;;;;17.40;9.00;;;;;;;5.50;100.00;101597.09;10373673;28;20041;-74
2023/05/01 05:09:25;;;;;;;19.52;8.23;;;;;;;5.75;100.00;101605.63;10397440;28;20044;-74
2023/05/01 05:14:25;;;;;;;16.77;8.70;;;;;;;5.98;100.00;101600.66;10381242;28;20042;-74
2023/05/01 05:19:26;;;;;;;16.80;7.55;;;;;;;6.17;100.00;101590.81;10413702;28;20038;-74
2023/05/01 05:24:26;;;;;;;16.20;9.07;;;;;;;6.35;100.00;101584.75;10396426;28;20026;-74
2023/05/01 05:29:27;;;;;;;17.27;9.77;;;;;;;6.54;100.00;101580.34;10395022;28;20048;-74
2023/05/01 05:34:27;;;;;;;18.35;8.88;;;;;;;6.74;100.00;101565.81;10396671;28;20531;-74
2023/05/01 05:39:29;;;;;;;18.40;9.02;;;;;;;6.93;100.00;101554.00;10379293;28;20045;-74
2023/05/01 05:44:31;;;;;;;16.02;9.82;;;;;;;7.26;100.00;101556.66;10380054;28;20060;-75
2023/05/01 05:49:32;;;;;;;17.73;9.48;;;;;;;7.63;100.00;101565.16;10379748;28;20037;-75
2023/05/01 05:54:32;;;;;;;17.92;8.63;;;;;;;7.98;100.00;101539.22;10412846;28;20068;-75
2023/05/01 05:59:33;;;;;;;16.05;7.95;;;;;;;8.14;100.00;101527.72;10393900;28;20037;-75
2023/05/01 06:04:33;;;;;;;12.27;6.78;;;;;;;7.96;100.00;101461.81;10378927;28;20060;-75
2023/05/01 06:09:35;;;;;;;16.25;8.50;;;;;;;8.47;100.00;101518.41;10394042;28;20033;-75
2023/05/01 06:14:35;;;;;;;15.50;7.55;;;;;;;8.64;100.00;101530.53;10412049;28;20450;-74
2023/05/01 06:19:36;;;;;;;11.95;7.00;;;;;;;8.84;100.00;101524.81;10394666;28;20041;-74
2023/05/01 06:24:38;;;;;;;16.23;7.28;;;;;;;9.16;100.00;101523.88;10361282;28;20115;-75
2023/05/01 06:29:39;;;;;;;12.57;6.82;;;;;;;9.42;100.00;101523.53;10376496;28;20037;-74
2023/05/01 06:34:39;;;;;;;19.52;8.65;;;;;;;9.71;100.00;101523.78;10411448;28;20053;-73
2023/05/01 06:39:40;;;;;;;10.38;7.10;;;;;;;9.80;100.00;101496.81;10410289;28;20559;-74
2023/05/01 06:44:41;;;;;;;12.15;7.20;;;;;;;9.97;100.00;101510.75;10381067;28;20045;-75
2023/05/01 06:49:42;;;;;;;17.48;7.80;;;;;;;10.19;100.00;101522.03;10336264;28;20106;-74
2023/05/01 06:54:43;;;;;;;13.75;7.53;;;;;;;10.16;100.00;101501.31;10372946;28;20042;-74
2023/05/01 06:59:44;;;;;;;15.48;7.72;;;;;;;10.39;100.00;101503.31;10410876;28;20048;-75
2023/05/01 07:04:44;;;;;;;16.02;8.45;;;;;;;10.66;100.00;101517.44;10390100;28;20397;-75
2023/05/01 07:09:45;;;;;;;14.38;7.30;;;;;;;10.87;100.00;101501.38;10375491;28;20046;-74
2023/05/01 07:14:45;;;;;;;11.60;7.18;;;;;;;11.15;100.00;101497.06;10408636;28;20041;-74
2023/05/01 07:19:46;;;;;;;15.23;7.30;;;;;;;11.54;100.00;101505.56;10416615;28;20033;-75
2023/05/01 07:24:46;;;;;;;11.27;6.82;;;;;;;11.89;100.00;101497.16;10399679;28;20107;-74
2023/05/01 07:29:47;;;;;;;10.35;7.45;;;;;;;12.00;100.00;101487.16;10384206;28;20041;-74
2023/05/01 07:34:47;;;;;;;12.73;6.78;;;;;;;12.17;100.00;101482.47;10417036;28;20048;-75
2023/05/01 07:39:48;;;;;;;10.50;5.80;;;;;;;12.04;100.00;101427.59;10381824;28;20034;-75
2023/05/01 07:44:51;;;;;;;10.35;5.68;;;;;;;12.63;100.00;101469.41;10381054;28;20532;-74
2023/05/01 07:49:52;;;;;;;12.20;5.75;;;;;;;12.83;100.00;101457.78;10382304;28;20029;-74
2023/05/01 07:54:53;;;;;;;10.60;5.20;;;;;;;12.85;100.00;101446.50;10382522;28;20559;-73
2023/05/01 07:59:55;;;;;;;8.15;3.97;;;;;;;12.76;100.00;101426.75;10417503;28;20041;-73
2023/05/01 08:04:55;;;;;;;10.90;5.88;;;;;;;13.04;100.00;101452.53;10365057;28;20060;-74
2023/05/01 08:09:56;;;;;;;9.95;4.53;;;;;;;13.07;100.00;101446.50;10393667;28;20042;-73
2023/05/01 08:14:56;;;;;;;12.23;5.60;;;;;;;13.05;100.00;101438.47;10379619;28;20096;-73
2023/05/01 08:19:57;;;;;;;9.75;4.95;;;;;;;13.35;100.00;101445.47;10380982;28;20071;-73
2023/05/01 08:24:58;;;;;;;11.60;5.18;;;;;;;13.34;100.00;101431.94;10364149;28;20044;-73
2023/05/01 08:29:58;;;;;;;9.95;4.63;;;;;;;13.49;100.00;101413.56;10398154;28;20037;-73
2023/05/01 08:34:59;;;;;;;9.05;4.95;;;;;;;13.78;100.00;101429.06;10382522;28;20034;-73
2023/05/01 08:39:59;;;;;;;10.90;5.75;;;;;;;13.96;100.00;101420.38;10396638;28;20049;-70
2023/05/01 08:45:00;;;;;;;9.55;4.80;;;;;;;14.36;100.00;101430.09;10395735;28;20134;-73
2023/05/01 08:50:01;;;;;;;10.00;4.75;;;;;;;14.66;100.00;101421.19;10364172;28;20040;-73
2023/05/01 08:55:01;;;;;;;9.93;4.68;;;;;;;14.88;100.00;101409.06;10396848;28;20025;-73
2023/05/01 09:00:03;;;;;;;9.40;4.35;;;;;;;14.96;100.00;101407.75;10382318;28;20096;-74
2023/05/01 09:05:04;;;;;;;9.63;5.38;;;;;;;15.04;100.00;101408.03;10381123;28;20100;-72
2023/05/01 09:10:05;;;;;;;7.18;4.25;;;;;;;15.29;100.00;101410.06;10379159;28;21369;-72
2023/05/01 09:15:06;;;;;;;9.07;5.05;;;;;;;15.68;100.00;101411.53;10396258;28;20034;-73
2023/05/01 09:20:07;;;;;;;11.00;5.38;;;;;;;16.02;98.64;101400.78;10396057;28;20497;-74
2023/05/01 09:25:09;;;;;;;6.72;4.75;;;;;;;16.27;97.18;101399.91;10380520;28;20783;-74
2023/05/01 09:30:28;;;;;;;10.07;5.20;;;;;;;16.27;93.47;101387.97;10397139;28;20213;-74
2023/05/01 09:35:28;;;;;;;7.80;3.88;;;;;;;16.41;93.45;101380.69;10382996;28;20041;-74
2023/05/01 09:40:30;;;;;;;8.35;3.90;;;;;;;16.58;91.41;101385.97;10395509;28;20112;-73
2023/05/01 09:45:30;;;;;;;8.35;4.20;;;;;;;16.65;91.04;101380.91;10327238;28;20052;-73
2023/05/01 09:50:33;;;;;;;8.60;3.90;;;;;;;17.00;89.35;101369.97;10337629;28;20038;-72
2023/05/01 09:55:33;;;;;;;6.22;3.60;;;;;;;17.18;90.39;101371.25;10339850;28;20462;-72
2023/05/01 10:00:46;;;;;;;6.63;3.72;;;;;;;17.46;88.95;101364.97;10392999;28;20038;-72
2023/05/01 10:05:47;;;;;;;9.02;3.58;;;;;;;17.88;84.29;101363.56;10381960;28;20132;-72
2023/05/01 10:11:02;;;;;;;11.65;4.40;;;;;;;18.00;84.08;101349.25;10390998;28;20079;-72
2023/05/01 10:16:06;;;;;;;7.35;3.95;;;;;;;18.19;82.04;101351.28;10367126;28;20041;-73
2023/05/01 10:21:08;;;;;;;11.10;4.32;;;;;;;18.05;80.53;101351.19;10392819;28;20067;-72
2023/05/01 10:26:11;;;;;;;6.70;3.80;;;;;;;18.20;81.96;101348.22;10378035;28;20076;-73
2023/05/01 10:31:12;;;;;;;8.65;3.83;;;;;;;18.56;82.44;101356.19;10375341;28;20064;-73
2023/05/01 10:36:24;;;;;;;5.78;3.70;;;;;;;18.64;80.56;101310.91;10408788;28;20064;-73
2023/05/01 10:41:57;;;;;;;7.32;3.40;;;;;;;19.09;76.57;101342.16;10391585;28;20043;-73
2023/05/01 10:46:57;;;;;;;6.68;2.88;;;;;;;19.35;78.38;101341.81;10350579;28;20041;-73
2023/05/01 10:51:58;;;;;;;7.43;3.05;;;;;;;19.78;73.45;101329.69;10392569;28;20041;-73
2023/05/01 10:57:00;;;;;;;18.90;3.92;;;;;;;19.53;73.12;101328.94;10376777;28;20041;-73
2023/05/01 11:02:00;;;;;;;6.95;3.17;;;;;;;19.66;72.84;101327.34;10363013;28;20063;-73
2023/05/01 11:07:04;;;;;;;8.20;3.70;;;;;;;19.89;72.70;101339.56;10375430;28;20111;-74
2023/05/01 11:12:05;;;;;;;5.40;2.78;;;;;;;19.82;70.23;101303.63;10408202;28;20038;-74
2023/05/01 11:17:05;;;;;;;5.72;2.88;;;;;;;19.80;69.76;101322.66;10408579;28;20053;-74
2023/05/01 11:22:12;;;;;;;8.85;2.70;;;;;;;20.05;69.67;101326.13;10376352;28;20030;-74
2023/05/01 11:27:13;;;;;;;8.77;2.78;;;;;;;19.74;66.44;101254.03;10376409;28;20044;-74
2023/05/01 11:32:15;;;;;;;8.27;2.85;;;;;;;19.86;66.85;101296.28;10391433;28;20030;-73
2023/05/01 11:37:16;;;;;;;6.47;2.72;;;;;;;19.76;66.08;101302.03;10375331;28;20045;-74
2023/05/01 11:42:19;;;;;;;8.07;3.13;;;;;;;20.28;65.54;101330.72;10335076;28;20061;-74
2023/05/01 11:47:20;;;;;;;7.45;3.17;;;;;;;20.40;64.24;101316.22;10328000;28;20071;-74
2023/05/01 11:52:20;;;;;;;10.15;4.40;;;;;;;20.62;67.25;101318.34;10318714;28;20037;-74
2023/05/01 11:57:21;;;;;;;7.18;4.20;;;;;;;20.72;65.72;101312.53;10324114;28;20048;-74
2023/05/01 12:02:21;;;;;;;13.95;5.95;;;;;;;21.19;64.31;101317.09;10339392;28;20033;-73
2023/05/01 12:07:22;;;;;;;11.88;4.38;;;;;;;22.00;64.52;101307.84;10383488;28;20061;-74
2023/05/01 12:12:22;;;;;;;5.55;3.65;;;;;;;22.04;61.69;101278.03;10398178;28;20056;-73
2023/05/01 12:17:23;;;;;;;8.07;3.22;;;;;;;22.35;60.51;101278.00;10344078;28;20034;-73
2023/05/01 12:22:24;;;;;;;8.98;4.00;;;;;;;23.35;59.88;101282.81;10358998;28;20026;-74
2023/05/01 12:27:24;;;;;;;4.07;1.98;;;;;;;23.86;56.27;101285.91;10342016;28;20042;-74
2023/05/01 12:32:32;;;;;;;5.32;1.98;;;;;;;23.99;54.54;101274.78;10379032;28;20489;-74
2023/05/01 12:37:32;;;;;;;4.93;1.95;;;;;;;24.33;52.72;101279.44;10409826;28;20342;-73
2023/05/01 12:42:33;;;;;;;4.10;1.65;;;;;;;24.12;55.25;101284.97;10381782;28;20029;-74
2023/05/01 12:47:37;;;;;;;5.07;1.92;;;;;;;23.59;51.97;101277.84;10377789;28;20080;-73
2023/05/01 12:52:37;;;;;;;4.75;1.27;;;;;;;23.36;53.66;101280.84;10381568;28;20057;-73
2023/05/01 12:57:52;;;;;;;4.32;1.08;;;;;;;23.40;53.69;101270.59;10414854;28;20040;-73
2023/05/01 13:02:52;;;;;;;4.10;1.73;;;;;;;23.51;54.62;101282.31;10364582;28;20041;-73
2023/05/01 13:07:53;;;;;;;2.83;1.10;;;;;;;22.75;52.48;101233.84;10395271;28;20045;-74
2023/05/01 13:12:53;;;;;;;2.00;0.98;;;;;;;22.21;53.16;101285.69;10395277;28;20072;-74
2023/05/01 13:17:54;;;;;;;4.13;1.10;;;;;;;21.68;54.53;101285.38;10380344;28;20064;-73
2023/05/01 13:22:54;;;;;;;2.45;1.30;;;;;;;21.69;54.74;101269.41;10364238;28;20033;-73
2023/05/01 13:27:55;;;;;;;2.05;1.20;;;;;;;22.57;55.20;101282.69;10396798;28;20033;-74
2023/05/01 13:32:55;;;;;;;4.53;1.80;;;;;;;22.67;55.33;101285.19;10412496;28;20025;-74
2023/05/01 13:37:56;;;;;;;8.80;4.28;;;;;;;22.28;57.39;101298.13;10395571;28;20072;-72
2023/05/01 13:42:56;;;;;;;8.18;3.40;;;;;;;22.39;57.70;101286.59;10379391;28;20050;-72
2023/05/01 13:47:57;;;;;;;8.70;3.70;;;;;;;21.48;60.18;101313.94;10394832;28;20064;-72
2023/05/01 13:52:57;;;;;;;7.20;3.35;;;;;;;20.73;59.34;101276.97;10379423;28;20125;-72
2023/05/01 13:57:58;;;;;;;3.88;1.65;;;;;;;20.53;60.05;101300.59;10395333;28;20037;-72
2023/05/01 14:02:58;;;;;;;3.67;1.42;;;;;;;20.75;59.93;101300.72;10377568;28;20033;-74
2023/05/01 14:07:59;;;;;;;2.92;1.30;;;;;;;20.41;60.57;101303.09;10394293;28;20056;-73
2023/05/01 14:13:00;;;;;;;3.13;1.60;;;;;;;19.99;61.93;101314.22;10336152;28;20045;-73
2023/05/01 14:18:06;;;;;;;6.05;1.55;;;;;;;19.71;64.17;101324.50;10355794;28;20046;-72
2023/05/01 14:23:07;;;;;;;7.53;1.70;;;;;;;19.93;64.95;101335.84;10377564;28;20096;-70
2023/05/01 14:28:07;;;;;;;4.00;1.65;;;;;;;20.09;66.17;101342.00;10411663;28;20033;-73
2023/05/01 14:33:10;;;;;;;8.27;3.03;;;;;;;20.93;62.94;101332.50;10411276;28;20044;-73
2023/05/01 14:38:12;;;;;;;5.78;1.60;;;;;;;21.83;61.28;101314.16;10377200;28;20061;-71
2023/05/01 14:43:15;;;;;;;4.30;1.50;;;;;;;21.36;62.03;101317.25;10379769;28;20038;-71
2023/05/01 14:48:22;;;;;;;4.55;1.52;;;;;;;20.81;63.34;101326.59;10391726;28;20041;-73
2023/05/01 14:53:23;;;;;;;6.38;2.13;;;;;;;20.25;64.10;101308.16;10361200;28;20083;-71
2023/05/01 14:58:24;;;;;;;3.85;1.98;;;;;;;19.94;67.24;101334.69;10393744;28;20487;-71
2023/05/01 15:03:24;;;;;;;6.22;2.50;;;;;;;19.64;67.58;101351.97;10410791;28;20045;-71
2023/05/01 15:08:25;;;;;;;3.58;1.63;;;;;;;19.53;67.91;101346.53;10410640;28;20451;-71
2023/05/01 15:13:25;;;;;;;4.90;1.60;;;;;;;19.19;69.07;101343.97;10390935;28;20037;-70
2023/05/01 15:18:26;;;;;;;7.03;1.90;;;;;;;19.04;69.55;101350.63;10379287;28;20070;-71
2023/05/01 15:23:26;;;;;;;2.90;1.48;;;;;;;18.92;69.51;101348.25;10376096;28;20033;-72
2023/05/01 15:28:27;;;;;;;7.78;2.00;;;;;;;18.45;70.73;101360.22;10392995;28;20037;-71
2023/05/01 15:33:28;;;;;;;5.30;1.98;;;;;;;18.28;71.35;101367.09;10377024;28;20069;-68
2023/05/01 15:38:29;;;;;;;7.43;2.88;;;;;;;17.93;72.59;101366.31;10418262;28;25042;-71
2023/05/01 15:43:29;;;;;;;5.60;1.85;;;;;;;18.10;75.50;101354.72;10417139;28;20061;-71
2023/05/01 15:48:30;;;;;;;3.25;1.40;;;;;;;18.10;74.00;101376.19;10415470;28;20037;-71
2023/05/01 15:53:30;;;;;;;6.65;1.88;;;;;;;18.15;74.15;101374.19;10399884;28;20029;-71
2023/05/01 15:58:30;;;;;;;4.63;2.03;;;;;;;18.18;73.58;101378.34;10398559;28;20045;-71
2023/05/01 16:03:31;;;;;;;6.53;1.42;;;;;;;18.14;71.75;101364.16;10396082;28;20706;-71
2023/05/01 16:08:32;;;;;;;3.83;1.30;;;;;;;18.42;72.39;101371.97;10381099;28;20041;-71
2023/05/01 16:13:36;;;;;;;5.85;1.48;;;;;;;18.12;71.13;101379.50;10394224;28;20045;-71
2023/05/01 16:18:43;;;;;;;4.80;1.65;;;;;;;17.43;73.31;101379.47;10415747;28;20033;-71
2023/05/01 16:23:43;;;;;;;3.60;1.80;;;;;;;17.13;75.78;101395.22;10398756;28;20080;-71
2023/05/01 16:28:44;;;;;;;6.15;2.03;;;;;;;16.70;78.73;101400.38;10381056;28;20556;-71
2023/05/01 16:33:45;;;;;;;3.60;2.10;;;;;;;16.53;80.18;101406.25;10415286;28;20037;-71
2023/05/01 16:38:46;;;;;;;4.07;2.17;;;;;;;16.32;82.03;101422.13;10391899;28;20049;-71
2023/05/01 16:43:50;;;;;;;12.30;2.83;;;;;;;16.37;83.14;101406.56;10381127;28;20037;-71
2023/05/01 16:48:50;;;;;;;6.47;2.72;;;;;;;16.58;84.14;101416.53;10396647;28;20101;-72
2023/05/01 16:53:51;;;;;;;5.07;3.17;;;;;;;17.28;83.91;101421.28;10414248;28;20479;-72
2023/05/01 16:58:51;;;;;;;8.90;4.90;;;;;;;17.72;83.18;101426.06;10396731;28;20040;-72
2023/05/01 17:03:52;;;;;;;8.85;5.63;;;;;;;17.37;78.90;101407.63;10414681;28;20046;-72
2023/05/01 17:08:53;;;;;;;7.80;5.15;;;;;;;16.68;80.97;101429.56;10379600;28;20453;-72
2023/05/01 17:13:54;;;;;;;8.77;5.63;;;;;;;15.97;84.04;101422.16;10397044;28;20068;-73
2023/05/01 17:18:54;;;;;;;9.93;5.45;;;;;;;15.58;83.86;101434.56;10380619;28;20060;-73
2023/05/01 17:23:55;;;;;;;9.02;5.85;;;;;;;15.43;87.86;101443.69;10379680;28;20026;-72
2023/05/01 17:28:55;;;;;;;11.38;6.60;;;;;;;15.53;90.72;101446.47;10412972;28;20041;-70
2023/05/01 17:33:56;;;;;;;9.80;6.25;;;;;;;15.65;93.51;101456.53;10396196;28;20046;-72
2023/05/01 17:38:58;;;;;;;10.45;6.18;;;;;;;15.47;90.62;101433.69;10412798;28;20057;-72
2023/05/01 17:43:59;;;;;;;11.00;6.97;;;;;;;15.43;91.40;101440.09;10412788;28;20095;-71
2023/05/01 17:49:00;;;;;;;10.65;6.95;;;;;;;15.34;92.59;101426.75;10378043;28;20454;-72
2023/05/01 17:54:00;;;;;;;12.52;7.13;;;;;;;14.90;92.16;101451.22;10412210;28;20053;-73
2023/05/01 17:59:01;;;;;;;13.95;8.20;;;;;;;14.59;95.56;101459.34;10391068;28;20045;-72
2023/05/01 18:04:01;;;;;;;15.77;8.32;;;;;;;14.37;98.91;101450.34;10411792;28;20101;-72
2023/05/01 18:09:02;;;;;;;14.82;8.38;;;;;;;14.26;100.00;101475.19;10377016;28;20041;-72
2023/05/01 18:14:03;;;;;;;16.08;9.18;;;;;;;14.10;100.00;101484.47;10393490;28;20029;-71
2023/05/01 18:19:03;;;;;;;15.25;9.30;;;;;;;13.90;100.00;101480.38;10410946;28;20025;-72
2023/05/01 18:24:04;;;;;;;14.73;10.07;;;;;;;13.34;100.00;101418.94;10393085;28;20029;-70
2023/05/01 18:29:04;;;;;;;18.35;12.05;;;;;;;13.45;100.00;101470.50;10410899;28;20068;-72
2023/05/01 18:34:09;;;;;;;21.67;11.95;;;;;;;13.41;100.00;101496.16;10393785;28;20367;-73
2023/05/01 18:39:10;;;;;;;18.33;11.98;;;;;;;13.21;100.00;101496.69;10360048;28;20183;-72
2023/05/01 18:44:10;;;;;;;18.48;12.25;;;;;;;13.10;100.00;101506.81;10391192;28;20034;-72
2023/05/01 18:49:11;;;;;;;19.65;13.48;;;;;;;12.70;100.00;101503.19;10397711;28;20030;-72
2023/05/01 18:54:12;;;;;;;24.92;14.88;;;;;;;12.52;100.00;101525.56;10374847;28;20425;-73
2023/05/01 18:59:13;;;;;;;24.00;14.27;;;;;;;12.41;100.00;101537.53;10359860;28;20061;-72
2023/05/01 19:04:13;;;;;;;24.20;16.17;;;;;;;12.16;100.00;101524.16;10392457;28;20385;-73
2023/05/01 19:09:14;;;;;;;27.52;15.65;;;;;;;12.07;100.00;101571.47;10341186;28;20068;-73
2023/05/01 19:14:15;;;;;;;22.25;14.93;;;;;;;12.04;100.00;101554.56;10363760;28;20288;-72
2023/05/01 19:19:15;;;;;;;21.77;14.65;;;;;;;11.94;100.00;101548.84;10392072;28;20041;-72
2023/05/01 19:24:16;;;;;;;21.35;13.40;;;;;;;11.94;100.00;101576.44;10373970;28;20486;-72
2023/05/01 19:29:16;;;;;;;21.50;13.32;;;;;;;11.78;100.00;101572.50;10391071;28;20056;-73
2023/05/01 19:34:17;;;;;;;23.90;14.63;;;;;;;11.70;100.00;101590.31;10363155;28;20061;-73
2023/05/01 19:39:17;;;;;;;23.25;15.48;;;;;;;11.61;100.00;101589.00;10408134;28;20069;-73
2023/05/01 19:44:18;;;;;;;25.60;14.25;;;;;;;11.51;100.00;101584.09;10391183;28;20045;-72
2023/05/01 19:49:18;;;;;;;23.48;15.10;;;;;;;11.46;100.00;101603.28;10408140;28;20042;-72
2023/05/01 19:54:21;;;;;;;25.73;15.48;;;;;;;11.17;100.00;101561.88;10391076;28;20061;-72
2023/05/01 19:59:21;;;;;;;22.45;14.75;;;;;;;11.06;100.00;101571.81;10409192;28;20137;-73
2023/05/01 20:04:22;;;;;;;24.55;15.52;;;;;;;11.09;100.00;101600.81;10376912;28;20041;-72
2023/05/01 20:09:24;;;;;;;24.70;15.25;;;;;;;10.82;100.00;101582.00;10374873;28;20101;-73
2023/05/01 20:14:24;;;;;;;22.05;14.95;;;;;;;10.75;100.00;101597.81;10374196;28;20048;-73
2023/05/01 20:19:26;;;;;;;25.88;15.65;;;;;;;10.69;100.00;101605.09;10390888;28;20052;-73
2023/05/01 20:24:27;;;;;;;25.70;15.75;;;;;;;10.65;100.00;101627.84;10380278;28;20037;-73
2023/05/01 20:29:27;;;;;;;27.58;17.40;;;;;;;10.55;100.00;101613.81;10398787;28;20037;-74
2023/05/01 20:34:28;;;;;;;26.60;16.08;;;;;;;10.19;100.00;101580.66;10397497;28;20418;-73
2023/05/01 20:39:28;;;;;;;25.17;16.52;;;;;;;10.52;100.00;101619.78;10415368;28;20069;-72
2023/05/01 20:44:28;;;;;;;25.70;16.17;;;;;;;10.61;100.00;101627.47;10415374;28;20053;-72
2023/05/01 20:49:29;;;;;;;28.90;17.02;;;;;;;10.68;100.00;101639.22;10396872;28;20033;-73
2023/05/01 20:54:31;;;;;;;27.60;15.98;;;;;;;10.73;100.00;101648.69;10349725;28;20045;-74
2023/05/01 20:59:31;;;;;;;29.27;18.38;;;;;;;10.68;100.00;101647.47;10377401;28;20037;-73
2023/05/01 21:04:32;;;;;;;29.90;17.67;;;;;;;10.83;100.00;101660.81;10334146;28;20183;-73
2023/05/01 21:09:32;;;;;;;26.23;16.60;;;;;;;10.76;100.00;101631.69;10410302;28;20045;-73
2023/05/01 21:14:33;;;;;;;29.92;17.70;;;;;;;10.96;100.00;101657.00;10410825;28;20034;-73
2023/05/01 21:19:44;;;;;;;31.92;18.17;;;;;;;10.89;100.00;101637.84;10409204;28;20064;-72
2023/05/01 21:24:44;;;;;;;31.75;18.60;;;;;;;11.02;100.00;101647.78;10377152;28;20060;-73
2023/05/01 21:29:58;;;;;;;31.25;17.83;;;;;;;10.99;100.00;101656.50;10413794;28;20038;-73
2023/05/01 21:34:59;;;;;;;29.30;16.73;;;;;;;10.96;100.00;101643.22;10363236;28;20042;-73
2023/05/01 21:39:59;;;;;;;29.83;16.63;;;;;;;10.85;100.00;101630.25;10378895;28;20064;-73
2023/05/01 21:45:07;;;;;;;28.35;16.10;;;;;;;10.87;100.00;101633.59;10378587;28;20053;-73
2023/05/01 21:50:12;;;;;;;28.58;16.17;;;;;;;10.93;100.00;101654.69;10378388;28;20056;-73
2023/05/01 21:55:20;;;;;;;29.05;16.15;;;;;;;10.84;100.00;101640.44;10395384;28;20489;-72
2023/05/01 22:00:21;;;;;;;31.30;16.83;;;;;;;10.82;100.00;101655.53;10386478;28;20038;-73
2023/05/01 22:05:22;;;;;;;31.23;15.95;;;;;;;10.84;100.00;101664.41;10393728;28;20436;-74
2023/05/01 22:10:22;;;;;;;33.33;15.52;;;;;;;10.64;100.00;101650.94;10393636;28;20060;-73
2023/05/01 22:15:23;;;;;;;26.13;14.70;;;;;;;10.73;100.00;101671.56;10376952;28;20409;-72
2023/05/01 22:20:28;;;;;;;27.38;14.20;;;;;;;10.59;100.00;101654.41;10378700;28;20033;-74
2023/05/01 22:25:29;;;;;;;24.45;11.93;;;;;;;10.69;100.00;101681.38;10377462;28;20452;-72
2023/05/01 22:30:29;;;;;;;18.77;10.60;;;;;;;10.50;100.00;101661.34;10393582;28;20038;-73
2023/05/01 22:35:30;;;;;;;20.65;11.95;;;;;;;10.47;100.00;101673.63;10393476;28;20045;-72
2023/05/01 22:40:30;;;;;;;19.30;10.05;;;;;;;10.13;100.00;101636.63;10375775;28;20044;-73
2023/05/01 22:45:31;;;;;;;20.75;11.05;;;;;;;10.44;100.00;101689.81;10375168;28;20041;-73
2023/05/01 22:50:32;;;;;;;19.25;12.13;;;;;;;10.29;100.00;101691.06;10367767;28;20413;-72